sensor_id;sensor_type;location;lat;lon;timestamp;noise_LAeq;noise_LA_min;noise_LA_max;noise_LA01;noise_LA95
83034;Laerm;72848;52.216;5.616;2024-01-15T00:00:49;35.20;29.50;48.75;;
83034;Laerm;72848;52.216;5.616;2024-01-15T00:03:17;34.99;29.94;50.65;;
83034;Laerm;72848;52.216;5.616;2024-01-15T00:05:46;39.63;30.61;51.49;;
83034;Laerm;72848;52.216;5.616;2024-01-15T00:08:14;35.54;30.69;53.70;;
83034;Laerm;72848;52.216;5.616;2024-01-15T00:10:43;35.76;30.59;51.07;;
83034;Laerm;72848;52.216;5.616;2024-01-15T00:13:11;34.12;29.56;45.44;;
83034;Laerm;72848;52.216;5.616;2024-01-15T00:15:39;34.37;30.02;46.42;;
83034;Laerm;72848;52.216;5.616;2024-01-15T00:18:10;35.24;29.69;53.40;;
83034;Laerm;72848;52.216;5.616;2024-01-15T00:20:39;37.85;30.95;49.63;;
83034;Laerm;72848;52.216;5.616;2024-01-15T00:23:07;38.75;30.38;48.34;;
83034;Laerm;72848;52.216;5.616;2024-01-15T00:25:35;34.38;29.48;44.43;;
83034;Laerm;72848;52.216;5.616;2024-01-15T00:28:04;35.77;29.80;43.16;;
83034;Laerm;72848;52.216;5.616;2024-01-15T00:30:33;39.93;30.96;50.06;;
83034;Laerm;72848;52.216;5.616;2024-01-15T00:33:01;38.39;30.87;50.09;;
83034;Laerm;72848;52.216;5.616;2024-01-15T00:35:32;35.49;30.13;46.37;;
83034;Laerm;72848;52.216;5.616;2024-01-15T00:38:01;34.17;29.39;44.43;;
83034;Laerm;72848;52.216;5.616;2024-01-15T00:40:29;33.08;29.16;41.09;;
83034;Laerm;72848;52.216;5.616;2024-01-15T00:42:57;32.96;29.38;42.23;;
83034;Laerm;72848;52.216;5.616;2024-01-15T00:45:26;33.66;29.26;49.16;;
83034;Laerm;72848;52.216;5.616;2024-01-15T00:47:55;33.06;29.37;45.51;;
83034;Laerm;72848;52.216;5.616;2024-01-15T00:50:23;36.36;29.52;48.87;;
83034;Laerm;72848;52.216;5.616;2024-01-15T00:52:57;34.69;29.98;42.55;;
83034;Laerm;72848;52.216;5.616;2024-01-15T00:55:25;37.16;31.39;44.18;;
83034;Laerm;72848;52.216;5.616;2024-01-15T00:57:53;39.20;31.97;49.75;;
83034;Laerm;72848;52.216;5.616;2024-01-15T01:00:22;39.65;33.36;45.72;;
83034;Laerm;72848;52.216;5.616;2024-01-15T01:02:50;34.32;29.48;43.15;;
83034;Laerm;72848;52.216;5.616;2024-01-15T01:05:19;34.43;29.78;44.47;;
83034;Laerm;72848;52.216;5.616;2024-01-15T01:07:47;33.43;29.77;43.09;;
83034;Laerm;72848;52.216;5.616;2024-01-15T01:10:18;34.21;29.40;42.15;;
83034;Laerm;72848;52.216;5.616;2024-01-15T01:12:47;38.77;32.12;48.57;;
83034;Laerm;72848;52.216;5.616;2024-01-15T01:15:15;37.66;31.51;45.82;;
83034;Laerm;72848;52.216;5.616;2024-01-15T01:17:44;33.76;29.69;42.96;;
83034;Laerm;72848;52.216;5.616;2024-01-15T01:20:12;34.67;29.95;45.52;;
83034;Laerm;72848;52.216;5.616;2024-01-15T01:22:41;36.67;30.51;47.43;;
83034;Laerm;72848;52.216;5.616;2024-01-15T01:25:09;34.76;29.47;43.39;;
83034;Laerm;72848;52.216;5.616;2024-01-15T01:27:41;33.67;29.31;48.32;;
83034;Laerm;72848;52.216;5.616;2024-01-15T01:30:09;33.11;29.41;51.16;;
83034;Laerm;72848;52.216;5.616;2024-01-15T01:32:38;35.84;30.02;55.45;;
83034;Laerm;72848;52.216;5.616;2024-01-15T01:35:06;34.82;29.61;52.25;;
83034;Laerm;72848;52.216;5.616;2024-01-15T01:37:35;32.78;29.55;40.37;;
83034;Laerm;72848;52.216;5.616;2024-01-15T01:40:04;33.04;29.85;44.14;;
83034;Laerm;72848;52.216;5.616;2024-01-15T01:42:33;35.29;30.38;44.01;;
83034;Laerm;72848;52.216;5.616;2024-01-15T01:45:04;38.68;29.77;47.83;;
83034;Laerm;72848;52.216;5.616;2024-01-15T01:47:33;35.81;30.01;42.45;;
83034;Laerm;72848;52.216;5.616;2024-01-15T01:50:02;39.53;31.37;47.99;;
83034;Laerm;72848;52.216;5.616;2024-01-15T01:52:30;34.41;30.18;48.28;;
83034;Laerm;72848;52.216;5.616;2024-01-15T01:54:59;38.66;31.08;59.21;;
83034;Laerm;72848;52.216;5.616;2024-01-15T01:57:28;39.83;32.71;52.15;;
83034;Laerm;72848;52.216;5.616;2024-01-15T01:59:57;36.52;30.14;43.65;;
83034;Laerm;72848;52.216;5.616;2024-01-15T02:02:29;36.14;30.38;48.83;;
83034;Laerm;72848;52.216;5.616;2024-01-15T02:04:59;35.52;31.53;42.07;;
83034;Laerm;72848;52.216;5.616;2024-01-15T02:07:27;37.88;31.56;45.57;;
83034;Laerm;72848;52.216;5.616;2024-01-15T02:09:56;38.20;31.59;46.74;;
83034;Laerm;72848;52.216;5.616;2024-01-15T02:12:24;37.95;29.80;46.08;;
83034;Laerm;72848;52.216;5.616;2024-01-15T02:14:52;32.09;29.30;40.23;;
83034;Laerm;72848;52.216;5.616;2024-01-15T02:17:21;35.03;30.55;44.35;;
83034;Laerm;72848;52.216;5.616;2024-01-15T02:19:52;38.45;31.42;50.96;;
83034;Laerm;72848;52.216;5.616;2024-01-15T02:22:20;40.78;33.41;49.25;;
83034;Laerm;72848;52.216;5.616;2024-01-15T02:24:54;34.84;31.04;44.26;;
83034;Laerm;72848;52.216;5.616;2024-01-15T02:27:22;38.67;31.98;49.51;;
83034;Laerm;72848;52.216;5.616;2024-01-15T02:29:50;35.30;31.03;51.88;;
83034;Laerm;72848;52.216;5.616;2024-01-15T02:32:19;33.69;30.78;40.28;;
83034;Laerm;72848;52.216;5.616;2024-01-15T02:34:48;36.46;30.47;46.03;;
83034;Laerm;72848;52.216;5.616;2024-01-15T02:37:16;34.15;30.41;44.27;;
83034;Laerm;72848;52.216;5.616;2024-01-15T02:39:44;38.21;30.77;43.99;;
83034;Laerm;72848;52.216;5.616;2024-01-15T02:42:16;35.56;30.20;57.22;;
83034;Laerm;72848;52.216;5.616;2024-01-15T02:44:45;35.91;31.08;43.83;;
83034;Laerm;72848;52.216;5.616;2024-01-15T02:47:13;33.52;29.79;40.72;;
83034;Laerm;72848;52.216;5.616;2024-01-15T02:49:41;34.36;30.17;48.79;;
83034;Laerm;72848;52.216;5.616;2024-01-15T02:52:10;38.65;31.05;48.58;;
83034;Laerm;72848;52.216;5.616;2024-01-15T02:54:39;37.86;31.27;52.52;;
83034;Laerm;72848;52.216;5.616;2024-01-15T02:57:07;37.30;32.21;46.30;;
83034;Laerm;72848;52.216;5.616;2024-01-15T02:59:40;37.16;32.01;44.34;;
83034;Laerm;72848;52.216;5.616;2024-01-15T03:02:08;37.57;30.88;48.68;;
83034;Laerm;72848;52.216;5.616;2024-01-15T03:04:37;33.15;30.58;40.54;;
83034;Laerm;72848;52.216;5.616;2024-01-15T03:07:05;34.61;30.60;44.99;;
83034;Laerm;72848;52.216;5.616;2024-01-15T03:09:33;39.92;34.00;46.84;;
83034;Laerm;72848;52.216;5.616;2024-01-15T03:12:02;39.41;31.68;49.06;;
83034;Laerm;72848;52.216;5.616;2024-01-15T03:14:30;35.79;30.61;45.41;;
83034;Laerm;72848;52.216;5.616;2024-01-15T03:17:03;36.85;32.92;43.57;;
83034;Laerm;72848;52.216;5.616;2024-01-15T03:19:31;42.04;34.71;48.44;;
83034;Laerm;72848;52.216;5.616;2024-01-15T03:22:02;41.57;35.00;47.22;;
83034;Laerm;72848;52.216;5.616;2024-01-15T03:24:31;42.28;37.11;57.77;;
83034;Laerm;72848;52.216;5.616;2024-01-15T03:27:00;39.99;35.53;47.46;;
83034;Laerm;72848;52.216;5.616;2024-01-15T03:29:28;40.37;34.11;50.33;;
83034;Laerm;72848;52.216;5.616;2024-01-15T03:31:56;41.18;34.53;50.31;;
83034;Laerm;72848;52.216;5.616;2024-01-15T03:34:28;44.49;37.63;60.07;;
83034;Laerm;72848;52.216;5.616;2024-01-15T03:36:56;42.17;38.24;48.42;;
83034;Laerm;72848;52.216;5.616;2024-01-15T03:39:24;39.88;34.27;49.40;;
83034;Laerm;72848;52.216;5.616;2024-01-15T03:41:53;38.92;32.84;47.67;;
83034;Laerm;72848;52.216;5.616;2024-01-15T03:44:21;40.22;36.14;49.33;;
83034;Laerm;72848;52.216;5.616;2024-01-15T03:46:50;39.04;34.97;51.44;;
83034;Laerm;72848;52.216;5.616;2024-01-15T03:49:18;41.78;35.81;53.63;;
83034;Laerm;72848;52.216;5.616;2024-01-15T03:51:49;41.23;35.99;50.99;;
83034;Laerm;72848;52.216;5.616;2024-01-15T03:54:17;39.15;34.69;50.89;;
83034;Laerm;72848;52.216;5.616;2024-01-15T03:56:46;37.88;32.38;53.30;;
83034;Laerm;72848;52.216;5.616;2024-01-15T03:59:14;37.09;31.87;46.47;;
83034;Laerm;72848;52.216;5.616;2024-01-15T04:01:47;34.79;30.76;49.44;;
83034;Laerm;72848;52.216;5.616;2024-01-15T04:04:16;36.65;31.92;47.37;;
83034;Laerm;72848;52.216;5.616;2024-01-15T04:06:44;39.93;33.68;49.20;;
83034;Laerm;72848;52.216;5.616;2024-01-15T04:09:16;40.83;36.62;46.03;;
83034;Laerm;72848;52.216;5.616;2024-01-15T04:11:44;40.27;36.23;45.32;;
83034;Laerm;72848;52.216;5.616;2024-01-15T04:14:12;41.87;34.75;51.94;;
83034;Laerm;72848;52.216;5.616;2024-01-15T04:16:41;40.43;35.63;61.50;;
83034;Laerm;72848;52.216;5.616;2024-01-15T04:19:09;38.70;33.86;43.58;;
83034;Laerm;72848;52.216;5.616;2024-01-15T04:21:37;36.51;32.68;42.01;;
83034;Laerm;72848;52.216;5.616;2024-01-15T04:24:06;38.27;34.30;44.43;;
83034;Laerm;72848;52.216;5.616;2024-01-15T04:26:37;40.93;35.19;48.20;;
83034;Laerm;72848;52.216;5.616;2024-01-15T04:29:06;40.34;35.74;47.07;;
83034;Laerm;72848;52.216;5.616;2024-01-15T04:31:34;40.34;36.34;46.05;;
83034;Laerm;72848;52.216;5.616;2024-01-15T04:34:03;39.94;34.35;46.06;;
83034;Laerm;72848;52.216;5.616;2024-01-15T04:36:31;40.03;34.20;47.60;;
83034;Laerm;72848;52.216;5.616;2024-01-15T04:38:59;41.07;35.61;44.80;;
83034;Laerm;72848;52.216;5.616;2024-01-15T04:41:28;40.76;35.57;46.47;;
83034;Laerm;72848;52.216;5.616;2024-01-15T04:43:59;41.67;37.17;48.81;;
83034;Laerm;72848;52.216;5.616;2024-01-15T04:46:28;40.46;35.23;45.92;;
83034;Laerm;72848;52.216;5.616;2024-01-15T04:48:56;39.44;33.51;48.49;;
83034;Laerm;72848;52.216;5.616;2024-01-15T04:51:24;39.36;35.60;43.81;;
83034;Laerm;72848;52.216;5.616;2024-01-15T04:53:53;41.00;37.54;48.06;;
83034;Laerm;72848;52.216;5.616;2024-01-15T04:56:21;39.63;35.61;47.24;;
83034;Laerm;72848;52.216;5.616;2024-01-15T04:58:50;39.28;34.68;44.60;;
83034;Laerm;72848;52.216;5.616;2024-01-15T05:01:21;39.96;36.21;51.48;;
83034;Laerm;72848;52.216;5.616;2024-01-15T05:03:50;43.13;36.91;54.28;;
83034;Laerm;72848;52.216;5.616;2024-01-15T05:06:18;39.65;34.80;56.89;;
83034;Laerm;72848;52.216;5.616;2024-01-15T05:08:46;41.11;36.78;46.91;;
83034;Laerm;72848;52.216;5.616;2024-01-15T05:11:15;43.19;37.75;49.26;;
83034;Laerm;72848;52.216;5.616;2024-01-15T05:13:44;42.46;38.55;49.29;;
83034;Laerm;72848;52.216;5.616;2024-01-15T05:16:12;44.79;35.78;60.33;;
83034;Laerm;72848;52.216;5.616;2024-01-15T05:18:43;47.91;41.67;60.33;;
83034;Laerm;72848;52.216;5.616;2024-01-15T05:21:12;45.54;37.78;57.03;;
83034;Laerm;72848;52.216;5.616;2024-01-15T05:23:40;41.90;35.32;47.71;;
83034;Laerm;72848;52.216;5.616;2024-01-15T05:26:08;42.18;37.53;46.95;;
83034;Laerm;72848;52.216;5.616;2024-01-15T05:28:37;43.62;39.55;48.13;;
83034;Laerm;72848;52.216;5.616;2024-01-15T05:31:05;42.56;37.63;49.57;;
83034;Laerm;72848;52.216;5.616;2024-01-15T05:33:34;44.55;40.81;52.48;;
83034;Laerm;72848;52.216;5.616;2024-01-15T05:36:06;44.28;39.13;49.30;;
83034;Laerm;72848;52.216;5.616;2024-01-15T05:38:34;43.72;40.15;48.36;;
83034;Laerm;72848;52.216;5.616;2024-01-15T05:41:03;45.69;42.64;50.96;;
83034;Laerm;72848;52.216;5.616;2024-01-15T05:43:31;44.71;41.31;52.90;;
83034;Laerm;72848;52.216;5.616;2024-01-15T05:46:00;47.39;41.32;57.65;;
83034;Laerm;72848;52.216;5.616;2024-01-15T05:48:28;44.39;41.39;55.26;;
83034;Laerm;72848;52.216;5.616;2024-01-15T05:50:57;44.78;42.02;51.74;;
83034;Laerm;72848;52.216;5.616;2024-01-15T05:53:28;43.28;37.92;53.26;;
83034;Laerm;72848;52.216;5.616;2024-01-15T05:55:57;42.76;39.70;52.49;;
83034;Laerm;72848;52.216;5.616;2024-01-15T05:58:25;46.02;41.32;58.87;;
83034;Laerm;72848;52.216;5.616;2024-01-15T06:00:53;43.83;40.67;51.06;;
83034;Laerm;72848;52.216;5.616;2024-01-15T06:03:22;45.09;40.71;52.28;;
83034;Laerm;72848;52.216;5.616;2024-01-15T06:05:51;45.89;41.79;54.15;;
83034;Laerm;72848;52.216;5.616;2024-01-15T06:08:19;45.50;41.66;55.18;;
83034;Laerm;72848;52.216;5.616;2024-01-15T06:10:51;46.27;42.85;52.78;;
83034;Laerm;72848;52.216;5.616;2024-01-15T06:13:20;46.16;43.00;57.77;;
83034;Laerm;72848;52.216;5.616;2024-01-15T06:15:48;46.49;43.11;57.33;;
83034;Laerm;72848;52.216;5.616;2024-01-15T06:18:16;46.58;43.50;57.22;;
83034;Laerm;72848;52.216;5.616;2024-01-15T06:20:46;45.19;41.65;58.28;;
83034;Laerm;72848;52.216;5.616;2024-01-15T06:23:15;45.36;42.55;55.65;;
83034;Laerm;72848;52.216;5.616;2024-01-15T06:25:43;46.95;42.55;56.81;;
83034;Laerm;72848;52.216;5.616;2024-01-15T06:28:16;45.95;42.44;54.47;;
83034;Laerm;72848;52.216;5.616;2024-01-15T06:30:45;46.29;42.77;56.99;;
83034;Laerm;72848;52.216;5.616;2024-01-15T06:33:13;45.22;41.52;55.50;;
83034;Laerm;72848;52.216;5.616;2024-01-15T06:35:41;45.40;41.05;57.08;;
83034;Laerm;72848;52.216;5.616;2024-01-15T06:38:10;45.69;42.34;55.79;;
83034;Laerm;72848;52.216;5.616;2024-01-15T06:40:38;46.25;41.67;58.12;;
83034;Laerm;72848;52.216;5.616;2024-01-15T06:43:07;45.57;42.05;56.36;;
83034;Laerm;72848;52.216;5.616;2024-01-15T06:45:38;45.47;42.44;55.85;;
83034;Laerm;72848;52.216;5.616;2024-01-15T06:48:06;45.01;42.11;59.01;;
83034;Laerm;72848;52.216;5.616;2024-01-15T06:50:35;45.29;42.17;55.88;;
83034;Laerm;72848;52.216;5.616;2024-01-15T06:53:03;44.81;42.00;57.22;;
83034;Laerm;72848;52.216;5.616;2024-01-15T06:55:32;48.35;41.15;63.60;;
83034;Laerm;72848;52.216;5.616;2024-01-15T06:58:00;46.73;41.99;53.79;;
83034;Laerm;72848;52.216;5.616;2024-01-15T07:00:29;49.63;42.26;60.72;;
83034;Laerm;72848;52.216;5.616;2024-01-15T07:03:01;52.47;41.67;67.53;;
83034;Laerm;72848;52.216;5.616;2024-01-15T07:05:29;44.57;41.28;54.23;;
83034;Laerm;72848;52.216;5.616;2024-01-15T07:07:58;46.13;42.80;56.26;;
83034;Laerm;72848;52.216;5.616;2024-01-15T07:10:26;47.66;42.51;67.50;;
83034;Laerm;72848;52.216;5.616;2024-01-15T07:12:55;43.22;39.85;51.41;;
83034;Laerm;72848;52.216;5.616;2024-01-15T07:15:23;44.47;39.51;56.50;;
83034;Laerm;72848;52.216;5.616;2024-01-15T07:17:51;45.79;43.18;55.55;;
83034;Laerm;72848;52.216;5.616;2024-01-15T07:20:22;45.21;42.01;56.23;;
83034;Laerm;72848;52.216;5.616;2024-01-15T07:22:51;48.99;42.24;58.19;;
83034;Laerm;72848;52.216;5.616;2024-01-15T07:25:19;46.25;42.27;58.09;;
83034;Laerm;72848;52.216;5.616;2024-01-15T07:27:48;52.54;44.81;69.78;;
83034;Laerm;72848;52.216;5.616;2024-01-15T07:30:16;50.09;43.34;73.27;;
83034;Laerm;72848;52.216;5.616;2024-01-15T07:32:44;46.24;42.19;57.07;;
83034;Laerm;72848;52.216;5.616;2024-01-15T07:35:13;45.98;41.93;55.72;;
83034;Laerm;72848;52.216;5.616;2024-01-15T07:37:45;45.59;41.77;56.43;;
83034;Laerm;72848;52.216;5.616;2024-01-15T07:40:13;45.87;42.13;55.01;;
83034;Laerm;72848;52.216;5.616;2024-01-15T07:42:41;46.49;43.35;58.80;;
83034;Laerm;72848;52.216;5.616;2024-01-15T07:45:10;46.26;41.92;54.47;;
83034;Laerm;72848;52.216;5.616;2024-01-15T07:47:39;46.66;42.89;54.14;;
83034;Laerm;72848;52.216;5.616;2024-01-15T07:50:07;47.58;43.50;57.61;;
83034;Laerm;72848;52.216;5.616;2024-01-15T07:52:36;47.33;43.08;56.49;;
83034;Laerm;72848;52.216;5.616;2024-01-15T07:55:08;47.20;42.84;56.14;;
83034;Laerm;72848;52.216;5.616;2024-01-15T07:57:37;46.96;42.55;57.28;;
83034;Laerm;72848;52.216;5.616;2024-01-15T08:00:06;45.88;40.81;55.81;;
83034;Laerm;72848;52.216;5.616;2024-01-15T08:02:34;44.89;40.85;55.86;;
83034;Laerm;72848;52.216;5.616;2024-01-15T08:05:03;44.73;42.27;52.67;;
83034;Laerm;72848;52.216;5.616;2024-01-15T08:07:31;45.42;39.83;63.48;;
83034;Laerm;72848;52.216;5.616;2024-01-15T08:10:00;44.06;40.22;60.34;;
83034;Laerm;72848;52.216;5.616;2024-01-15T08:12:32;45.95;39.13;65.95;;
83034;Laerm;72848;52.216;5.616;2024-01-15T08:15:01;43.67;40.92;53.42;;
83034;Laerm;72848;52.216;5.616;2024-01-15T08:17:29;42.59;39.07;50.89;;
83034;Laerm;72848;52.216;5.616;2024-01-15T08:19:57;44.08;40.22;53.91;;
83034;Laerm;72848;52.216;5.616;2024-01-15T08:22:26;44.14;39.62;53.27;;
83034;Laerm;72848;52.216;5.616;2024-01-15T08:24:54;55.09;37.87;78.72;;
83034;Laerm;72848;52.216;5.616;2024-01-15T08:27:23;45.00;41.50;58.93;;
83034;Laerm;72848;52.216;5.616;2024-01-15T08:29:54;46.74;40.27;61.69;;
83034;Laerm;72848;52.216;5.616;2024-01-15T08:32:22;50.97;39.79;70.79;;
83034;Laerm;72848;52.216;5.616;2024-01-15T08:34:51;44.83;37.63;56.53;;
83034;Laerm;72848;52.216;5.616;2024-01-15T08:37:19;45.23;38.47;57.54;;
83034;Laerm;72848;52.216;5.616;2024-01-15T08:39:47;49.13;41.30;76.49;;
83034;Laerm;72848;52.216;5.616;2024-01-15T08:42:16;55.16;40.79;76.22;;
83034;Laerm;72848;52.216;5.616;2024-01-15T08:44:44;51.05;39.13;68.85;;
83034;Laerm;72848;52.216;5.616;2024-01-15T08:47:17;50.28;38.67;69.93;;
83034;Laerm;72848;52.216;5.616;2024-01-15T08:49:45;46.95;39.98;65.57;;
83034;Laerm;72848;52.216;5.616;2024-01-15T08:52:13;46.46;40.92;57.91;;
83034;Laerm;72848;52.216;5.616;2024-01-15T08:54:42;44.39;39.73;52.53;;
83034;Laerm;72848;52.216;5.616;2024-01-15T08:57:10;45.46;40.10;54.21;;
83034;Laerm;72848;52.216;5.616;2024-01-15T08:59:38;45.90;41.95;55.04;;
83034;Laerm;72848;52.216;5.616;2024-01-15T09:02:07;44.97;41.50;57.66;;
83034;Laerm;72848;52.216;5.616;2024-01-15T09:04:38;44.66;40.56;53.82;;
83034;Laerm;72848;52.216;5.616;2024-01-15T09:07:06;46.01;42.18;58.52;;
83034;Laerm;72848;52.216;5.616;2024-01-15T09:09:35;43.85;39.20;59.81;;
83034;Laerm;72848;52.216;5.616;2024-01-15T09:12:03;43.67;40.07;52.25;;
83034;Laerm;72848;52.216;5.616;2024-01-15T09:14:32;46.55;40.12;66.19;;
83034;Laerm;72848;52.216;5.616;2024-01-15T09:17:00;48.35;42.18;65.37;;
83034;Laerm;72848;52.216;5.616;2024-01-15T09:19:29;47.21;40.41;70.81;;
83034;Laerm;72848;52.216;5.616;2024-01-15T09:22:00;45.64;42.17;53.70;;
83034;Laerm;72848;52.216;5.616;2024-01-15T09:24:29;45.28;41.72;55.86;;
83034;Laerm;72848;52.216;5.616;2024-01-15T09:26:57;43.86;39.13;52.14;;
83034;Laerm;72848;52.216;5.616;2024-01-15T09:29:25;48.49;40.43;70.87;;
83034;Laerm;72848;52.216;5.616;2024-01-15T09:31:54;44.30;39.28;62.81;;
83034;Laerm;72848;52.216;5.616;2024-01-15T09:34:22;49.58;40.18;63.94;;
83034;Laerm;72848;52.216;5.616;2024-01-15T09:36:51;44.09;40.96;55.77;;
83034;Laerm;72848;52.216;5.616;2024-01-15T09:39:22;42.79;39.31;54.88;;
83034;Laerm;72848;52.216;5.616;2024-01-15T09:41:50;44.08;39.28;60.83;;
83034;Laerm;72848;52.216;5.616;2024-01-15T09:44:19;47.88;38.36;65.51;;
83034;Laerm;72848;52.216;5.616;2024-01-15T09:46:47;48.75;40.44;63.33;;
83034;Laerm;72848;52.216;5.616;2024-01-15T09:49:15;46.47;39.96;59.68;;
83034;Laerm;72848;52.216;5.616;2024-01-15T09:51:44;45.30;40.72;58.64;;
83034;Laerm;72848;52.216;5.616;2024-01-15T09:54:12;45.04;41.21;56.93;;
83034;Laerm;72848;52.216;5.616;2024-01-15T09:56:44;44.98;41.06;54.60;;
83034;Laerm;72848;52.216;5.616;2024-01-15T09:59:13;45.34;41.17;50.88;;
83034;Laerm;72848;52.216;5.616;2024-01-15T10:01:43;43.98;39.62;54.06;;
83034;Laerm;72848;52.216;5.616;2024-01-15T10:04:11;43.24;39.87;55.78;;
83034;Laerm;72848;52.216;5.616;2024-01-15T10:06:41;43.81;38.97;55.25;;
83034;Laerm;72848;52.216;5.616;2024-01-15T10:09:12;43.64;38.94;51.35;;
83034;Laerm;72848;52.216;5.616;2024-01-15T10:11:43;45.64;38.58;59.07;;
83034;Laerm;72848;52.216;5.616;2024-01-15T10:14:12;42.80;38.73;56.80;;
83034;Laerm;72848;52.216;5.616;2024-01-15T10:16:41;43.11;37.21;61.28;;
83034;Laerm;72848;52.216;5.616;2024-01-15T10:19:09;44.86;38.26;61.52;;
83034;Laerm;72848;52.216;5.616;2024-01-15T10:21:38;42.60;38.95;50.27;;
83034;Laerm;72848;52.216;5.616;2024-01-15T10:24:06;43.85;38.99;55.07;;
83034;Laerm;72848;52.216;5.616;2024-01-15T10:26:34;42.46;38.45;56.78;;
83034;Laerm;72848;52.216;5.616;2024-01-15T10:29:06;46.62;38.16;59.01;;
83034;Laerm;72848;52.216;5.616;2024-01-15T10:31:34;43.18;38.84;53.10;;
83034;Laerm;72848;52.216;5.616;2024-01-15T10:36:46;43.40;40.32;56.59;;
83034;Laerm;72848;52.216;5.616;2024-01-15T10:39:14;44.51;40.22;61.97;;
83034;Laerm;72848;52.216;5.616;2024-01-15T10:41:43;42.99;39.05;51.81;;
83034;Laerm;72848;52.216;5.616;2024-01-15T10:44:15;42.36;38.58;52.46;;
83034;Laerm;72848;52.216;5.616;2024-01-15T10:46:43;43.60;38.36;53.30;;
83034;Laerm;72848;52.216;5.616;2024-01-15T10:49:12;44.26;41.52;50.45;;
83034;Laerm;72848;52.216;5.616;2024-01-15T10:51:41;45.71;41.36;56.59;;
83034;Laerm;72848;52.216;5.616;2024-01-15T10:54:09;57.32;42.56;79.09;;
83034;Laerm;72848;52.216;5.616;2024-01-15T10:56:39;46.17;40.37;57.86;;
83034;Laerm;72848;52.216;5.616;2024-01-15T10:59:08;44.38;40.52;56.61;;
83034;Laerm;72848;52.216;5.616;2024-01-15T11:01:41;44.65;40.02;64.25;;
83034;Laerm;72848;52.216;5.616;2024-01-15T11:04:10;45.83;42.20;54.98;;
83034;Laerm;72848;52.216;5.616;2024-01-15T11:06:42;46.40;39.86;59.83;;
83034;Laerm;72848;52.216;5.616;2024-01-15T11:09:11;45.43;40.97;53.22;;
83034;Laerm;72848;52.216;5.616;2024-01-15T11:11:40;44.17;41.14;56.77;;
83034;Laerm;72848;52.216;5.616;2024-01-15T11:14:09;45.14;39.68;63.46;;
83034;Laerm;72848;52.216;5.616;2024-01-15T11:19:24;45.20;40.21;56.79;;
83034;Laerm;72848;52.216;5.616;2024-01-15T11:21:53;46.51;38.87;57.49;;
83034;Laerm;72848;52.216;5.616;2024-01-15T11:24:34;43.49;39.47;52.27;;
83034;Laerm;72848;52.216;5.616;2024-01-15T11:27:02;44.85;40.83;50.35;;
83034;Laerm;72848;52.216;5.616;2024-01-15T11:29:32;44.17;41.14;51.30;;
83034;Laerm;72848;52.216;5.616;2024-01-15T11:32:04;43.78;39.03;49.00;;
83034;Laerm;72848;52.216;5.616;2024-01-15T11:37:19;43.55;39.29;52.36;;
83034;Laerm;72848;52.216;5.616;2024-01-15T11:39:47;44.90;40.13;58.83;;
83034;Laerm;72848;52.216;5.616;2024-01-15T11:42:16;44.69;40.50;54.97;;
83034;Laerm;72848;52.216;5.616;2024-01-15T11:44:44;44.71;40.38;59.28;;
83034;Laerm;72848;52.216;5.616;2024-01-15T11:47:12;45.16;40.61;56.16;;
83034;Laerm;72848;52.216;5.616;2024-01-15T11:49:56;44.91;40.02;61.40;;
83034;Laerm;72848;52.216;5.616;2024-01-15T11:52:30;43.12;39.52;53.33;;
83034;Laerm;72848;52.216;5.616;2024-01-15T11:55:00;44.54;39.92;50.66;;
83034;Laerm;72848;52.216;5.616;2024-01-15T11:57:32;44.26;39.40;58.54;;
83034;Laerm;72848;52.216;5.616;2024-01-15T12:00:01;44.76;41.76;51.68;;
83034;Laerm;72848;52.216;5.616;2024-01-15T12:02:30;43.57;40.75;50.73;;
83034;Laerm;72848;52.216;5.616;2024-01-15T12:04:58;45.83;42.66;57.37;;
83034;Laerm;72848;52.216;5.616;2024-01-15T12:07:30;47.78;43.92;58.85;;
83034;Laerm;72848;52.216;5.616;2024-01-15T12:09:59;49.36;45.53;55.50;;
83034;Laerm;72848;52.216;5.616;2024-01-15T12:12:29;47.69;43.84;55.61;;
83034;Laerm;72848;52.216;5.616;2024-01-15T12:15:02;47.60;42.92;57.91;;
83034;Laerm;72848;52.216;5.616;2024-01-15T12:17:31;46.91;42.36;55.51;;
83034;Laerm;72848;52.216;5.616;2024-01-15T12:19:59;48.16;42.31;70.88;;
83034;Laerm;72848;52.216;5.616;2024-01-15T12:22:32;45.70;42.07;52.46;;
83034;Laerm;72848;52.216;5.616;2024-01-15T12:25:00;44.86;41.62;50.64;;
83034;Laerm;72848;52.216;5.616;2024-01-15T12:27:29;44.17;40.32;61.93;;
83034;Laerm;72848;52.216;5.616;2024-01-15T12:29:58;44.94;39.84;61.95;;
83034;Laerm;72848;52.216;5.616;2024-01-15T12:32:26;44.60;41.21;59.64;;
83034;Laerm;72848;52.216;5.616;2024-01-15T12:34:55;49.38;41.26;76.14;;
83034;Laerm;72848;52.216;5.616;2024-01-15T12:37:23;48.81;40.04;65.69;;
83034;Laerm;72848;52.216;5.616;2024-01-15T12:39:56;44.83;40.68;60.75;;
83034;Laerm;72848;52.216;5.616;2024-01-15T12:42:27;45.61;42.37;52.20;;
83034;Laerm;72848;52.216;5.616;2024-01-15T12:44:56;44.54;41.43;51.05;;
83034;Laerm;72848;52.216;5.616;2024-01-15T12:47:24;45.44;40.86;66.98;;
83034;Laerm;72848;52.216;5.616;2024-01-15T12:49:53;46.39;40.63;62.53;;
83034;Laerm;72848;52.216;5.616;2024-01-15T12:52:21;50.12;40.20;61.36;;
83034;Laerm;72848;52.216;5.616;2024-01-15T12:54:51;45.33;41.61;55.49;;
83034;Laerm;72848;52.216;5.616;2024-01-15T12:57:22;46.27;42.37;63.66;;
83034;Laerm;72848;52.216;5.616;2024-01-15T12:59:51;44.55;41.67;50.81;;
83034;Laerm;72848;52.216;5.616;2024-01-15T13:02:20;43.26;40.29;51.98;;
83034;Laerm;72848;52.216;5.616;2024-01-15T13:04:48;45.47;42.13;52.14;;
83034;Laerm;72848;52.216;5.616;2024-01-15T13:07:17;44.75;41.73;53.61;;
83034;Laerm;72848;52.216;5.616;2024-01-15T13:09:45;44.28;40.85;50.52;;
83034;Laerm;72848;52.216;5.616;2024-01-15T13:12:13;44.63;41.50;52.26;;
83034;Laerm;72848;52.216;5.616;2024-01-15T13:14:47;44.54;41.07;48.94;;
83034;Laerm;72848;52.216;5.616;2024-01-15T13:17:16;44.78;41.40;53.35;;
83034;Laerm;72848;52.216;5.616;2024-01-15T13:19:45;45.14;42.01;50.57;;
83034;Laerm;72848;52.216;5.616;2024-01-15T13:22:13;44.66;41.56;59.04;;
83034;Laerm;72848;52.216;5.616;2024-01-15T13:24:41;45.28;42.26;50.80;;
83034;Laerm;72848;52.216;5.616;2024-01-15T13:27:10;46.61;42.73;56.30;;
83034;Laerm;72848;52.216;5.616;2024-01-15T13:29:38;47.85;43.30;56.24;;
83034;Laerm;72848;52.216;5.616;2024-01-15T13:32:11;46.02;42.14;56.98;;
83034;Laerm;72848;52.216;5.616;2024-01-15T13:34:41;47.50;43.14;55.14;;
83034;Laerm;72848;52.216;5.616;2024-01-15T13:37:10;45.57;42.03;49.77;;
83034;Laerm;72848;52.216;5.616;2024-01-15T13:39:38;46.17;43.05;54.01;;
83034;Laerm;72848;52.216;5.616;2024-01-15T13:42:07;45.78;42.50;52.67;;
83034;Laerm;72848;52.216;5.616;2024-01-15T13:44:35;46.60;42.31;53.43;;
83034;Laerm;72848;52.216;5.616;2024-01-15T13:47:04;45.93;41.78;58.71;;
83034;Laerm;72848;52.216;5.616;2024-01-15T13:49:35;44.50;41.09;48.62;;
83034;Laerm;72848;52.216;5.616;2024-01-15T13:52:04;44.13;41.62;53.83;;
83034;Laerm;72848;52.216;5.616;2024-01-15T13:54:33;46.64;41.99;54.35;;
83034;Laerm;72848;52.216;5.616;2024-01-15T13:57:01;46.20;43.25;52.77;;
83034;Laerm;72848;52.216;5.616;2024-01-15T13:59:31;51.93;44.97;64.08;;
83034;Laerm;72848;52.216;5.616;2024-01-15T14:01:59;47.19;43.34;55.21;;